sensor_id;sensor_type;location;lat;lon;timestamp;P1;durP1;ratioP1;P2;durP2;ratioP2
13309;SDS011;6723;48.256;16.402;2022-07-15T00:02:23;2.83;;;1.47;;
13309;SDS011;6723;48.256;16.402;2022-07-15T00:04:49;1.57;;;1.47;;
13309;SDS011;6723;48.256;16.402;2022-07-15T00:07:15;1.83;;;1.33;;
13309;SDS011;6723;48.256;16.402;2022-07-15T00:09:41;2.47;;;1.40;;
13309;SDS011;6723;48.256;16.402;2022-07-15T00:12:26;3.80;;;1.40;;
13309;SDS011;6723;48.256;16.402;2022-07-15T00:14:51;1.40;;;1.30;;
13309;SDS011;6723;48.256;16.402;2022-07-15T00:17:17;1.63;;;1.47;;
13309;SDS011;6723;48.256;16.402;2022-07-15T00:19:43;3.73;;;1.50;;
13309;SDS011;6723;48.256;16.402;2022-07-15T00:22:09;1.33;;;1.23;;
13309;SDS011;6723;48.256;16.402;2022-07-15T00:24:36;2.07;;;1.50;;
13309;SDS011;6723;48.256;16.402;2022-07-15T00:27:03;2.30;;;1.50;;
13309;SDS011;6723;48.256;16.402;2022-07-15T00:29:29;3.53;;;1.57;;
13309;SDS011;6723;48.256;16.402;2022-07-15T00:31:56;2.00;;;1.60;;
13309;SDS011;6723;48.256;16.402;2022-07-15T00:34:22;2.37;;;1.90;;
13309;SDS011;6723;48.256;16.402;2022-07-15T00:36:47;2.80;;;1.80;;
13309;SDS011;6723;48.256;16.402;2022-07-15T00:39:14;2.87;;;1.53;;
13309;SDS011;6723;48.256;16.402;2022-07-15T00:41:40;4.03;;;1.80;;
13309;SDS011;6723;48.256;16.402;2022-07-15T00:44:07;6.40;;;2.00;;
13309;SDS011;6723;48.256;16.402;2022-07-15T00:46:34;8.60;;;2.37;;
13309;SDS011;6723;48.256;16.402;2022-07-15T00:49:02;6.70;;;2.50;;
13309;SDS011;6723;48.256;16.402;2022-07-15T00:51:35;6.07;;;3.00;;
13309;SDS011;6723;48.256;16.402;2022-07-15T00:54:23;6.33;;;3.37;;
13309;SDS011;6723;48.256;16.402;2022-07-15T00:56:55;7.20;;;3.20;;
13309;SDS011;6723;48.256;16.402;2022-07-15T00:59:24;6.90;;;3.20;;
13309;SDS011;6723;48.256;16.402;2022-07-15T01:01:54;4.37;;;3.77;;
13309;SDS011;6723;48.256;16.402;2022-07-15T01:04:24;5.00;;;3.80;;
13309;SDS011;6723;48.256;16.402;2022-07-15T01:06:52;4.50;;;3.87;;
13309;SDS011;6723;48.256;16.402;2022-07-15T01:09:18;5.10;;;3.40;;
13309;SDS011;6723;48.256;16.402;2022-07-15T01:11:45;4.13;;;3.00;;
13309;SDS011;6723;48.256;16.402;2022-07-15T01:14:12;4.60;;;3.60;;
13309;SDS011;6723;48.256;16.402;2022-07-15T01:16:38;4.37;;;3.97;;
13309;SDS011;6723;48.256;16.402;2022-07-15T01:19:04;5.07;;;4.67;;
13309;SDS011;6723;48.256;16.402;2022-07-15T01:21:30;5.07;;;4.57;;
13309;SDS011;6723;48.256;16.402;2022-07-15T01:23:56;5.53;;;4.50;;
13309;SDS011;6723;48.256;16.402;2022-07-15T01:26:21;4.47;;;3.70;;
13309;SDS011;6723;48.256;16.402;2022-07-15T01:28:47;5.20;;;4.63;;
13309;SDS011;6723;48.256;16.402;2022-07-15T01:31:14;5.87;;;4.83;;
13309;SDS011;6723;48.256;16.402;2022-07-15T01:33:39;6.70;;;4.53;;
13309;SDS011;6723;48.256;16.402;2022-07-15T01:36:05;4.93;;;4.43;;
13309;SDS011;6723;48.256;16.402;2022-07-15T01:38:32;5.47;;;4.97;;
13309;SDS011;6723;48.256;16.402;2022-07-15T01:40:58;5.33;;;4.70;;
13309;SDS011;6723;48.256;16.402;2022-07-15T01:43:24;6.63;;;5.10;;
13309;SDS011;6723;48.256;16.402;2022-07-15T01:45:50;5.40;;;4.90;;
13309;SDS011;6723;48.256;16.402;2022-07-15T01:48:16;7.27;;;5.53;;
13309;SDS011;6723;48.256;16.402;2022-07-15T01:51:00;6.57;;;5.47;;
13309;SDS011;6723;48.256;16.402;2022-07-15T01:53:27;5.70;;;5.20;;
13309;SDS011;6723;48.256;16.402;2022-07-15T01:55:53;6.73;;;4.90;;
13309;SDS011;6723;48.256;16.402;2022-07-15T01:58:20;5.27;;;4.83;;
13309;SDS011;6723;48.256;16.402;2022-07-15T02:00:46;6.93;;;5.57;;
13309;SDS011;6723;48.256;16.402;2022-07-15T02:03:14;5.40;;;4.93;;
13309;SDS011;6723;48.256;16.402;2022-07-15T02:05:41;6.77;;;6.23;;
13309;SDS011;6723;48.256;16.402;2022-07-15T02:08:07;7.20;;;6.20;;
13309;SDS011;6723;48.256;16.402;2022-07-15T02:10:32;7.47;;;6.67;;
13309;SDS011;6723;48.256;16.402;2022-07-15T02:13:09;7.83;;;6.93;;
13309;SDS011;6723;48.256;16.402;2022-07-15T02:15:36;8.90;;;7.40;;
13309;SDS011;6723;48.256;16.402;2022-07-15T02:18:03;9.93;;;8.17;;
13309;SDS011;6723;48.256;16.402;2022-07-15T02:20:30;8.17;;;7.43;;
13309;SDS011;6723;48.256;16.402;2022-07-15T02:22:56;9.70;;;7.73;;
13309;SDS011;6723;48.256;16.402;2022-07-15T02:25:26;9.97;;;8.97;;
13309;SDS011;6723;48.256;16.402;2022-07-15T02:27:54;10.47;;;8.03;;
13309;SDS011;6723;48.256;16.402;2022-07-15T02:30:23;9.43;;;7.97;;
13309;SDS011;6723;48.256;16.402;2022-07-15T02:32:53;9.57;;;8.40;;
13309;SDS011;6723;48.256;16.402;2022-07-15T02:35:19;8.40;;;7.60;;
13309;SDS011;6723;48.256;16.402;2022-07-15T02:37:45;9.37;;;8.57;;
13309;SDS011;6723;48.256;16.402;2022-07-15T02:40:11;10.10;;;9.10;;
13309;SDS011;6723;48.256;16.402;2022-07-15T02:42:38;10.30;;;9.30;;
13309;SDS011;6723;48.256;16.402;2022-07-15T02:45:05;11.60;;;10.37;;
13309;SDS011;6723;48.256;16.402;2022-07-15T02:47:31;10.40;;;9.40;;
13309;SDS011;6723;48.256;16.402;2022-07-15T02:49:57;11.10;;;8.50;;
13309;SDS011;6723;48.256;16.402;2022-07-15T02:52:23;10.97;;;8.83;;
13309;SDS011;6723;48.256;16.402;2022-07-15T02:54:49;9.90;;;8.87;;
13309;SDS011;6723;48.256;16.402;2022-07-15T02:57:15;8.90;;;8.10;;
13309;SDS011;6723;48.256;16.402;2022-07-15T02:59:41;8.77;;;7.97;;
13309;SDS011;6723;48.256;16.402;2022-07-15T03:02:07;9.53;;;8.20;;
13309;SDS011;6723;48.256;16.402;2022-07-15T03:04:32;8.97;;;8.07;;
13309;SDS011;6723;48.256;16.402;2022-07-15T03:06:58;10.60;;;9.60;;
13309;SDS011;6723;48.256;16.402;2022-07-15T03:09:24;11.03;;;9.60;;
13309;SDS011;6723;48.256;16.402;2022-07-15T03:11:49;9.77;;;8.77;;
13309;SDS011;6723;48.256;16.402;2022-07-15T03:14:15;11.27;;;8.60;;
13309;SDS011;6723;48.256;16.402;2022-07-15T03:16:41;10.43;;;8.23;;
13309;SDS011;6723;48.256;16.402;2022-07-15T03:19:07;10.43;;;9.07;;
13309;SDS011;6723;48.256;16.402;2022-07-15T03:21:33;10.40;;;9.30;;
13309;SDS011;6723;48.256;16.402;2022-07-15T03:23:59;10.37;;;9.37;;
13309;SDS011;6723;48.256;16.402;2022-07-15T03:26:25;10.10;;;9.10;;
13309;SDS011;6723;48.256;16.402;2022-07-15T03:28:50;10.03;;;9.13;;
13309;SDS011;6723;48.256;16.402;2022-07-15T03:31:16;11.07;;;9.10;;
13309;SDS011;6723;48.256;16.402;2022-07-15T03:33:42;10.23;;;9.20;;
13309;SDS011;6723;48.256;16.402;2022-07-15T03:36:08;9.70;;;8.80;;
13309;SDS011;6723;48.256;16.402;2022-07-15T03:38:34;9.70;;;8.57;;
13309;SDS011;6723;48.256;16.402;2022-07-15T03:40:59;9.60;;;8.63;;
13309;SDS011;6723;48.256;16.402;2022-07-15T03:43:25;9.33;;;8.43;;
13309;SDS011;6723;48.256;16.402;2022-07-15T03:45:54;8.80;;;8.00;;
13309;SDS011;6723;48.256;16.402;2022-07-15T03:48:21;9.50;;;7.67;;
13309;SDS011;6723;48.256;16.402;2022-07-15T03:50:47;8.77;;;7.57;;
13309;SDS011;6723;48.256;16.402;2022-07-15T03:53:13;8.93;;;7.87;;
13309;SDS011;6723;48.256;16.402;2022-07-15T03:55:39;8.67;;;7.30;;
13309;SDS011;6723;48.256;16.402;2022-07-15T03:58:05;9.03;;;8.10;;
13309;SDS011;6723;48.256;16.402;2022-07-15T04:00:31;8.40;;;7.40;;
13309;SDS011;6723;48.256;16.402;2022-07-15T04:02:57;9.10;;;7.37;;
13309;SDS011;6723;48.256;16.402;2022-07-15T04:05:23;8.97;;;7.13;;
13309;SDS011;6723;48.256;16.402;2022-07-15T04:07:49;8.10;;;7.40;;
13309;SDS011;6723;48.256;16.402;2022-07-15T04:10:15;8.00;;;7.20;;
13309;SDS011;6723;48.256;16.402;2022-07-15T04:12:41;8.60;;;6.90;;
13309;SDS011;6723;48.256;16.402;2022-07-15T04:15:07;7.63;;;6.87;;
13309;SDS011;6723;48.256;16.402;2022-07-15T04:17:33;9.00;;;6.97;;
13309;SDS011;6723;48.256;16.402;2022-07-15T04:20:00;7.70;;;6.83;;
13309;SDS011;6723;48.256;16.402;2022-07-15T04:22:26;7.80;;;6.53;;
13309;SDS011;6723;48.256;16.402;2022-07-15T04:24:52;6.73;;;6.03;;
13309;SDS011;6723;48.256;16.402;2022-07-15T04:27:18;7.50;;;6.50;;
13309;SDS011;6723;48.256;16.402;2022-07-15T04:29:44;7.90;;;7.10;;
13309;SDS011;6723;48.256;16.402;2022-07-15T04:32:10;6.80;;;6.00;;
13309;SDS011;6723;48.256;16.402;2022-07-15T04:34:36;9.53;;;7.07;;
13309;SDS011;6723;48.256;16.402;2022-07-15T04:37:01;7.40;;;6.67;;
13309;SDS011;6723;48.256;16.402;2022-07-15T04:39:27;7.00;;;6.30;;
13309;SDS011;6723;48.256;16.402;2022-07-15T04:41:53;9.23;;;6.57;;
13309;SDS011;6723;48.256;16.402;2022-07-15T04:44:19;6.93;;;6.23;;
13309;SDS011;6723;48.256;16.402;2022-07-15T04:46:44;8.17;;;7.07;;
13309;SDS011;6723;48.256;16.402;2022-07-15T04:49:10;9.67;;;6.87;;
13309;SDS011;6723;48.256;16.402;2022-07-15T04:51:55;10.43;;;7.03;;
13309;SDS011;6723;48.256;16.402;2022-07-15T04:54:21;8.23;;;6.77;;
13309;SDS011;6723;48.256;16.402;2022-07-15T04:56:46;7.90;;;7.10;;
13309;SDS011;6723;48.256;16.402;2022-07-15T04:59:12;9.60;;;7.67;;
13309;SDS011;6723;48.256;16.402;2022-07-15T05:01:38;8.90;;;6.83;;
13309;SDS011;6723;48.256;16.402;2022-07-15T05:04:04;7.50;;;6.10;;
13309;SDS011;6723;48.256;16.402;2022-07-15T05:06:30;7.03;;;6.43;;
13309;SDS011;6723;48.256;16.402;2022-07-15T05:08:55;8.83;;;6.37;;
13309;SDS011;6723;48.256;16.402;2022-07-15T05:11:21;9.90;;;5.90;;
13309;SDS011;6723;48.256;16.402;2022-07-15T05:13:47;6.87;;;5.57;;
13309;SDS011;6723;48.256;16.402;2022-07-15T05:16:12;7.57;;;6.00;;
13309;SDS011;6723;48.256;16.402;2022-07-15T05:18:38;6.97;;;5.67;;
13309;SDS011;6723;48.256;16.402;2022-07-15T05:21:08;8.37;;;6.27;;
13309;SDS011;6723;48.256;16.402;2022-07-15T05:23:34;6.80;;;6.10;;
13309;SDS011;6723;48.256;16.402;2022-07-15T05:25:59;8.77;;;5.40;;
13309;SDS011;6723;48.256;16.402;2022-07-15T05:28:26;8.20;;;5.97;;
13309;SDS011;6723;48.256;16.402;2022-07-15T05:30:52;7.67;;;5.30;;
13309;SDS011;6723;48.256;16.402;2022-07-15T05:33:18;8.60;;;5.70;;
13309;SDS011;6723;48.256;16.402;2022-07-15T05:35:44;6.57;;;5.70;;
13309;SDS011;6723;48.256;16.402;2022-07-15T05:38:11;6.40;;;5.83;;
13309;SDS011;6723;48.256;16.402;2022-07-15T05:40:37;10.33;;;6.23;;
13309;SDS011;6723;48.256;16.402;2022-07-15T05:43:03;10.30;;;5.80;;
13309;SDS011;6723;48.256;16.402;2022-07-15T05:45:29;8.00;;;5.70;;
13309;SDS011;6723;48.256;16.402;2022-07-15T05:47:55;7.83;;;6.00;;
13309;SDS011;6723;48.256;16.402;2022-07-15T05:50:21;8.80;;;5.50;;
13309;SDS011;6723;48.256;16.402;2022-07-15T05:52:47;6.10;;;5.50;;
13309;SDS011;6723;48.256;16.402;2022-07-15T05:55:12;7.17;;;5.40;;
13309;SDS011;6723;48.256;16.402;2022-07-15T05:57:38;5.70;;;5.13;;
13309;SDS011;6723;48.256;16.402;2022-07-15T06:00:04;8.03;;;5.00;;
13309;SDS011;6723;48.256;16.402;2022-07-15T06:02:33;7.73;;;4.90;;
13309;SDS011;6723;48.256;16.402;2022-07-15T06:04:59;7.27;;;4.83;;
13309;SDS011;6723;48.256;16.402;2022-07-15T06:07:25;6.10;;;4.53;;
13309;SDS011;6723;48.256;16.402;2022-07-15T06:09:51;4.57;;;4.17;;
13309;SDS011;6723;48.256;16.402;2022-07-15T06:12:17;4.90;;;4.33;;
13309;SDS011;6723;48.256;16.402;2022-07-15T06:14:43;4.90;;;4.13;;
13309;SDS011;6723;48.256;16.402;2022-07-15T06:17:08;6.43;;;4.30;;
13309;SDS011;6723;48.256;16.402;2022-07-15T06:19:34;4.33;;;3.93;;
13309;SDS011;6723;48.256;16.402;2022-07-15T06:22:00;5.07;;;4.00;;
13309;SDS011;6723;48.256;16.402;2022-07-15T06:24:26;6.73;;;3.80;;
13309;SDS011;6723;48.256;16.402;2022-07-15T06:26:52;7.13;;;3.70;;
13309;SDS011;6723;48.256;16.402;2022-07-15T06:29:18;5.43;;;3.30;;
13309;SDS011;6723;48.256;16.402;2022-07-15T06:31:44;4.00;;;3.00;;
13309;SDS011;6723;48.256;16.402;2022-07-15T06:34:10;6.50;;;3.43;;
13309;SDS011;6723;48.256;16.402;2022-07-15T06:36:36;7.27;;;2.90;;
13309;SDS011;6723;48.256;16.402;2022-07-15T06:39:02;10.87;;;4.73;;
13309;SDS011;6723;48.256;16.402;2022-07-15T06:41:28;5.53;;;3.17;;
13309;SDS011;6723;48.256;16.402;2022-07-15T06:43:54;6.60;;;3.17;;
13309;SDS011;6723;48.256;16.402;2022-07-15T06:46:20;5.63;;;3.70;;
13309;SDS011;6723;48.256;16.402;2022-07-15T06:48:46;8.73;;;3.13;;
13309;SDS011;6723;48.256;16.402;2022-07-15T06:51:12;7.13;;;4.90;;
13309;SDS011;6723;48.256;16.402;2022-07-15T06:53:39;6.60;;;3.23;;
13309;SDS011;6723;48.256;16.402;2022-07-15T06:56:06;7.03;;;3.37;;
13309;SDS011;6723;48.256;16.402;2022-07-15T06:58:32;5.90;;;3.33;;
13309;SDS011;6723;48.256;16.402;2022-07-15T07:01:06;9.47;;;3.47;;
13309;SDS011;6723;48.256;16.402;2022-07-15T07:03:32;4.90;;;2.80;;
13309;SDS011;6723;48.256;16.402;2022-07-15T07:05:58;4.90;;;2.93;;
13309;SDS011;6723;48.256;16.402;2022-07-15T07:08:24;5.13;;;2.80;;
13309;SDS011;6723;48.256;16.402;2022-07-15T07:10:50;8.40;;;2.93;;
13309;SDS011;6723;48.256;16.402;2022-07-15T07:13:16;6.77;;;3.20;;
13309;SDS011;6723;48.256;16.402;2022-07-15T07:15:42;2.80;;;2.20;;
13309;SDS011;6723;48.256;16.402;2022-07-15T07:18:07;5.40;;;2.50;;
13309;SDS011;6723;48.256;16.402;2022-07-15T07:20:35;4.30;;;2.40;;
13309;SDS011;6723;48.256;16.402;2022-07-15T07:23:02;7.03;;;2.13;;
13309;SDS011;6723;48.256;16.402;2022-07-15T07:25:28;6.87;;;2.30;;
13309;SDS011;6723;48.256;16.402;2022-07-15T07:27:54;7.60;;;2.10;;
13309;SDS011;6723;48.256;16.402;2022-07-15T07:30:20;2.47;;;1.70;;
13309;SDS011;6723;48.256;16.402;2022-07-15T07:32:46;5.07;;;2.03;;
13309;SDS011;6723;48.256;16.402;2022-07-15T07:35:12;2.97;;;1.70;;
13309;SDS011;6723;48.256;16.402;2022-07-15T07:37:38;4.28;;;1.70;;
13309;SDS011;6723;48.256;16.402;2022-07-15T07:40:07;4.32;;;1.83;;
13309;SDS011;6723;48.256;16.402;2022-07-15T07:42:33;2.72;;;1.50;;
13309;SDS011;6723;48.256;16.402;2022-07-15T07:45:00;2.83;;;1.30;;
13309;SDS011;6723;48.256;16.402;2022-07-15T07:47:27;3.03;;;1.48;;
13309;SDS011;6723;48.256;16.402;2022-07-15T07:49:53;2.65;;;1.00;;
13309;SDS011;6723;48.256;16.402;2022-07-15T07:52:18;3.78;;;1.38;;
13309;SDS011;6723;48.256;16.402;2022-07-15T07:54:44;9.90;;;1.38;;
13309;SDS011;6723;48.256;16.402;2022-07-15T07:57:10;3.25;;;1.33;;
13309;SDS011;6723;48.256;16.402;2022-07-15T07:59:36;4.07;;;1.40;;
13309;SDS011;6723;48.256;16.402;2022-07-15T08:04:44;1.55;;;0.85;;
13309;SDS011;6723;48.256;16.402;2022-07-15T08:07:10;2.47;;;0.80;;
13309;SDS011;6723;48.256;16.402;2022-07-15T08:09:36;2.40;;;1.10;;
13309;SDS011;6723;48.256;16.402;2022-07-15T08:12:02;4.78;;;1.00;;
13309;SDS011;6723;48.256;16.402;2022-07-15T08:14:28;5.03;;;1.00;;
13309;SDS011;6723;48.256;16.402;2022-07-15T08:16:54;5.45;;;1.10;;
13309;SDS011;6723;48.256;16.402;2022-07-15T08:19:20;1.83;;;0.90;;
13309;SDS011;6723;48.256;16.402;2022-07-15T08:21:46;4.53;;;1.20;;
13309;SDS011;6723;48.256;16.402;2022-07-15T08:24:12;3.63;;;1.00;;
13309;SDS011;6723;48.256;16.402;2022-07-15T08:26:39;4.57;;;1.00;;
13309;SDS011;6723;48.256;16.402;2022-07-15T08:29:05;3.03;;;1.05;;
13309;SDS011;6723;48.256;16.402;2022-07-15T08:31:31;1.50;;;0.75;;
13309;SDS011;6723;48.256;16.402;2022-07-15T08:33:58;3.03;;;0.98;;
13309;SDS011;6723;48.256;16.402;2022-07-15T08:36:25;1.60;;;1.08;;
13309;SDS011;6723;48.256;16.402;2022-07-15T08:38:51;2.17;;;1.00;;
13309;SDS011;6723;48.256;16.402;2022-07-15T08:41:16;1.25;;;0.77;;
13309;SDS011;6723;48.256;16.402;2022-07-15T08:43:43;4.22;;;0.93;;
13309;SDS011;6723;48.256;16.402;2022-07-15T08:46:10;2.50;;;1.05;;
13309;SDS011;6723;48.256;16.402;2022-07-15T08:48:38;2.45;;;1.10;;
13309;SDS011;6723;48.256;16.402;2022-07-15T08:51:08;3.40;;;1.10;;
13309;SDS011;6723;48.256;16.402;2022-07-15T08:53:35;3.63;;;1.02;;
13309;SDS011;6723;48.256;16.402;2022-07-15T08:56:01;4.32;;;1.17;;
13309;SDS011;6723;48.256;16.402;2022-07-15T08:58:27;4.93;;;0.90;;
13309;SDS011;6723;48.256;16.402;2022-07-15T09:00:53;4.75;;;0.95;;
13309;SDS011;6723;48.256;16.402;2022-07-15T09:03:19;2.22;;;1.20;;
13309;SDS011;6723;48.256;16.402;2022-07-15T09:05:45;2.83;;;1.00;;
13309;SDS011;6723;48.256;16.402;2022-07-15T09:08:12;1.60;;;0.90;;
13309;SDS011;6723;48.256;16.402;2022-07-15T09:13:12;4.85;;;1.30;;
13309;SDS011;6723;48.256;16.402;2022-07-15T09:15:47;3.58;;;1.80;;
13309;SDS011;6723;48.256;16.402;2022-07-15T09:18:16;4.35;;;2.55;;
13309;SDS011;6723;48.256;16.402;2022-07-15T09:20:44;3.13;;;1.60;;
13309;SDS011;6723;48.256;16.402;2022-07-15T09:23:12;3.78;;;1.58;;
13309;SDS011;6723;48.256;16.402;2022-07-15T09:25:46;4.07;;;1.30;;
13309;SDS011;6723;48.256;16.402;2022-07-15T09:28:12;2.97;;;1.30;;
13309;SDS011;6723;48.256;16.402;2022-07-15T09:30:43;3.78;;;1.60;;
13309;SDS011;6723;48.256;16.402;2022-07-15T09:33:30;1.98;;;1.00;;
13309;SDS011;6723;48.256;16.402;2022-07-15T09:36:22;3.22;;;1.23;;
13309;SDS011;6723;48.256;16.402;2022-07-15T09:43:56;1.88;;;1.08;;
13309;SDS011;6723;48.256;16.402;2022-07-15T09:46:44;3.58;;;1.10;;
13309;SDS011;6723;48.256;16.402;2022-07-15T09:49:11;2.13;;;0.95;;
13309;SDS011;6723;48.256;16.402;2022-07-15T09:51:42;5.20;;;1.20;;
13309;SDS011;6723;48.256;16.402;2022-07-15T09:54:10;5.80;;;1.27;;
13309;SDS011;6723;48.256;16.402;2022-07-15T09:56:37;2.67;;;1.00;;
13309;SDS011;6723;48.256;16.402;2022-07-15T09:59:03;3.60;;;0.98;;
13309;SDS011;6723;48.256;16.402;2022-07-15T10:01:29;1.70;;;1.08;;
13309;SDS011;6723;48.256;16.402;2022-07-15T10:03:56;2.08;;;0.90;;
13309;SDS011;6723;48.256;16.402;2022-07-15T10:06:23;3.30;;;1.10;;
13309;SDS011;6723;48.256;16.402;2022-07-15T10:08:52;2.88;;;1.10;;
13309;SDS011;6723;48.256;16.402;2022-07-15T10:11:19;3.50;;;1.10;;
13309;SDS011;6723;48.256;16.402;2022-07-15T10:14:05;2.55;;;1.42;;
13309;SDS011;6723;48.256;16.402;2022-07-15T10:25:25;6.20;;;1.17;;
13309;SDS011;6723;48.256;16.402;2022-07-15T10:28:10;2.08;;;1.17;;
13309;SDS011;6723;48.256;16.402;2022-07-15T10:30:45;3.33;;;1.63;;
13309;SDS011;6723;48.256;16.402;2022-07-15T10:33:16;3.38;;;1.65;;
13309;SDS011;6723;48.256;16.402;2022-07-15T10:40:57;2.33;;;1.42;;
13309;SDS011;6723;48.256;16.402;2022-07-15T10:43:45;4.70;;;1.70;;
13309;SDS011;6723;48.256;16.402;2022-07-15T10:46:19;2.75;;;1.50;;
13309;SDS011;6723;48.256;16.402;2022-07-15T10:48:50;2.83;;;1.52;;
13309;SDS011;6723;48.256;16.402;2022-07-15T10:54:01;3.58;;;1.48;;
13309;SDS011;6723;48.256;16.402;2022-07-15T10:59:08;3.25;;;1.60;;
13309;SDS011;6723;48.256;16.402;2022-07-15T11:01:40;4.85;;;1.70;;
13309;SDS011;6723;48.256;16.402;2022-07-15T11:12:18;3.50;;;1.70;;
13309;SDS011;6723;48.256;16.402;2022-07-15T11:17:11;3.92;;;1.60;;
13309;SDS011;6723;48.256;16.402;2022-07-15T11:19:38;2.83;;;1.77;;
13309;SDS011;6723;48.256;16.402;2022-07-15T11:22:05;5.90;;;1.88;;
13309;SDS011;6723;48.256;16.402;2022-07-15T11:24:34;5.75;;;1.98;;
13309;SDS011;6723;48.256;16.402;2022-07-15T11:27:01;5.60;;;1.90;;
13309;SDS011;6723;48.256;16.402;2022-07-15T11:29:47;3.63;;;1.55;;
13309;SDS011;6723;48.256;16.402;2022-07-15T11:32:18;4.57;;;1.58;;
13309;SDS011;6723;48.256;16.402;2022-07-15T11:34:55;3.63;;;1.60;;
13309;SDS011;6723;48.256;16.402;2022-07-15T11:37:32;3.47;;;1.67;;
13309;SDS011;6723;48.256;16.402;2022-07-15T11:42:34;3.97;;;1.77;;
13309;SDS011;6723;48.256;16.402;2022-07-15T11:45:33;1.90;;;1.50;;
13309;SDS011;6723;48.256;16.402;2022-07-15T11:48:02;3.67;;;1.77;;
13309;SDS011;6723;48.256;16.402;2022-07-15T11:50:54;5.00;;;2.00;;
13309;SDS011;6723;48.256;16.402;2022-07-15T11:53:21;2.08;;;1.58;;
13309;SDS011;6723;48.256;16.402;2022-07-15T11:55:56;2.40;;;1.48;;
13309;SDS011;6723;48.256;16.402;2022-07-15T11:58:30;5.60;;;1.70;;
13309;SDS011;6723;48.256;16.402;2022-07-15T12:00:59;7.07;;;1.70;;
13309;SDS011;6723;48.256;16.402;2022-07-15T12:03:30;6.78;;;1.65;;
13309;SDS011;6723;48.256;16.402;2022-07-15T12:06:01;9.20;;;2.10;;
13309;SDS011;6723;48.256;16.402;2022-07-15T12:08:50;2.42;;;1.75;;
13309;SDS011;6723;48.256;16.402;2022-07-15T12:11:27;4.78;;;2.90;;
13309;SDS011;6723;48.256;16.402;2022-07-15T12:13:59;5.18;;;2.20;;
13309;SDS011;6723;48.256;16.402;2022-07-15T12:16:27;4.03;;;1.75;;
13309;SDS011;6723;48.256;16.402;2022-07-15T12:18:54;5.13;;;1.80;;
13309;SDS011;6723;48.256;16.402;2022-07-15T12:21:26;4.05;;;1.50;;
13309;SDS011;6723;48.256;16.402;2022-07-15T12:24:09;6.22;;;1.75;;
13309;SDS011;6723;48.256;16.402;2022-07-15T12:26:42;4.43;;;3.10;;
13309;SDS011;6723;48.256;16.402;2022-07-15T12:29:15;3.35;;;2.85;;
13309;SDS011;6723;48.256;16.402;2022-07-15T12:31:50;5.13;;;3.90;;
13309;SDS011;6723;48.256;16.402;2022-07-15T12:34:17;6.50;;;3.05;;
13309;SDS011;6723;48.256;16.402;2022-07-15T12:36:53;7.28;;;2.90;;
13309;SDS011;6723;48.256;16.402;2022-07-15T12:39:23;8.68;;;2.40;;
13309;SDS011;6723;48.256;16.402;2022-07-15T12:42:03;4.17;;;2.20;;
13309;SDS011;6723;48.256;16.402;2022-07-15T12:44:30;3.47;;;2.37;;
13309;SDS011;6723;48.256;16.402;2022-07-15T12:46:58;4.97;;;2.40;;
13309;SDS011;6723;48.256;16.402;2022-07-15T12:49:42;2.90;;;2.20;;
13309;SDS011;6723;48.256;16.402;2022-07-15T12:54:42;3.13;;;2.50;;
13309;SDS011;6723;48.256;16.402;2022-07-15T13:00:06;4.43;;;3.40;;
13309;SDS011;6723;48.256;16.402;2022-07-15T13:02:54;5.77;;;4.23;;
13309;SDS011;6723;48.256;16.402;2022-07-15T13:05:22;6.67;;;3.60;;
13309;SDS011;6723;48.256;16.402;2022-07-15T13:07:48;4.73;;;2.90;;
13309;SDS011;6723;48.256;16.402;2022-07-15T13:10:14;2.80;;;2.00;;
13309;SDS011;6723;48.256;16.402;2022-07-15T13:12:40;5.93;;;2.30;;
13309;SDS011;6723;48.256;16.402;2022-07-15T13:15:06;2.00;;;1.80;;
13309;SDS011;6723;48.256;16.402;2022-07-15T13:17:33;2.70;;;1.93;;
13309;SDS011;6723;48.256;16.402;2022-07-15T13:20:00;5.27;;;2.10;;
13309;SDS011;6723;48.256;16.402;2022-07-15T13:22:30;2.87;;;1.90;;
13309;SDS011;6723;48.256;16.402;2022-07-15T13:24:57;4.43;;;1.90;;
13309;SDS011;6723;48.256;16.402;2022-07-15T13:27:23;5.75;;;1.95;;
13309;SDS011;6723;48.256;16.402;2022-07-15T13:29:49;4.50;;;2.23;;
13309;SDS011;6723;48.256;16.402;2022-07-15T13:32:15;4.40;;;2.10;;
13309;SDS011;6723;48.256;16.402;2022-07-15T13:34:41;3.67;;;2.03;;
13309;SDS011;6723;48.256;16.402;2022-07-15T13:37:07;7.37;;;2.53;;
13309;SDS011;6723;48.256;16.402;2022-07-15T13:39:33;3.23;;;2.30;;
13309;SDS011;6723;48.256;16.402;2022-07-15T13:41:59;6.63;;;2.17;;
13309;SDS011;6723;48.256;16.402;2022-07-15T13:44:25;3.33;;;1.90;;
13309;SDS011;6723;48.256;16.402;2022-07-15T13:46:50;5.63;;;1.80;;
13309;SDS011;6723;48.256;16.402;2022-07-15T13:49:16;2.65;;;2.10;;
13309;SDS011;6723;48.256;16.402;2022-07-15T13:51:42;5.18;;;1.90;;
13309;SDS011;6723;48.256;16.402;2022-07-15T13:54:08;4.72;;;2.00;;
13309;SDS011;6723;48.256;16.402;2022-07-15T13:56:35;6.85;;;5.20;;
13309;SDS011;6723;48.256;16.402;2022-07-15T13:59:01;6.75;;;3.55;;
13309;SDS011;6723;48.256;16.402;2022-07-15T14:01:28;7.13;;;2.70;;
13309;SDS011;6723;48.256;16.402;2022-07-15T14:03:57;2.95;;;1.95;;
13309;SDS011;6723;48.256;16.402;2022-07-15T14:06:23;5.28;;;2.28;;
13309;SDS011;6723;48.256;16.402;2022-07-15T14:08:49;3.45;;;1.98;;
13309;SDS011;6723;48.256;16.402;2022-07-15T14:11:15;2.55;;;1.75;;
13309;SDS011;6723;48.256;16.402;2022-07-15T14:13:42;3.67;;;2.20;;
13309;SDS011;6723;48.256;16.402;2022-07-15T14:16:10;4.75;;;2.60;;
13309;SDS011;6723;48.256;16.402;2022-07-15T14:21:09;3.72;;;2.22;;
13309;SDS011;6723;48.256;16.402;2022-07-15T14:23:35;7.35;;;2.53;;
13309;SDS011;6723;48.256;16.402;2022-07-15T14:26:02;4.30;;;2.60;;
13309;SDS011;6723;48.256;16.402;2022-07-15T14:28:28;3.67;;;2.95;;
13309;SDS011;6723;48.256;16.402;2022-07-15T14:30:55;3.92;;;2.45;;
13309;SDS011;6723;48.256;16.402;2022-07-15T14:33:20;4.65;;;2.53;;
13309;SDS011;6723;48.256;16.402;2022-07-15T14:35:46;2.77;;;2.43;;
13309;SDS011;6723;48.256;16.402;2022-07-15T14:38:12;3.57;;;3.27;;
13309;SDS011;6723;48.256;16.402;2022-07-15T14:40:38;4.63;;;2.60;;
13309;SDS011;6723;48.256;16.402;2022-07-15T14:43:04;6.77;;;6.03;;
13309;SDS011;6723;48.256;16.402;2022-07-15T14:45:29;5.63;;;5.03;;
13309;SDS011;6723;48.256;16.402;2022-07-15T14:47:55;5.17;;;4.20;;
13309;SDS011;6723;48.256;16.402;2022-07-15T14:50:21;5.77;;;3.27;;
13309;SDS011;6723;48.256;16.402;2022-07-15T14:52:53;5.40;;;3.40;;
13309;SDS011;6723;48.256;16.402;2022-07-15T14:55:19;4.47;;;3.30;;
13309;SDS011;6723;48.256;16.402;2022-07-15T14:57:44;4.80;;;2.50;;
13309;SDS011;6723;48.256;16.402;2022-07-15T15:00:10;4.87;;;2.57;;
13309;SDS011;6723;48.256;16.402;2022-07-15T15:02:37;5.03;;;2.40;;
13309;SDS011;6723;48.256;16.402;2022-07-15T15:05:03;4.80;;;2.57;;
13309;SDS011;6723;48.256;16.402;2022-07-15T15:07:29;8.10;;;2.80;;
13309;SDS011;6723;48.256;16.402;2022-07-15T15:09:54;3.70;;;2.70;;
13309;SDS011;6723;48.256;16.402;2022-07-15T15:12:20;3.37;;;2.57;;
13309;SDS011;6723;48.256;16.402;2022-07-15T15:14:46;6.40;;;2.57;;
13309;SDS011;6723;48.256;16.402;2022-07-15T15:17:12;4.70;;;2.70;;
13309;SDS011;6723;48.256;16.402;2022-07-15T15:19:38;5.13;;;2.20;;
13309;SDS011;6723;48.256;16.402;2022-07-15T15:22:04;5.53;;;2.57;;
13309;SDS011;6723;48.256;16.402;2022-07-15T15:24:31;2.97;;;2.60;;
13309;SDS011;6723;48.256;16.402;2022-07-15T15:26:57;5.73;;;2.50;;
13309;SDS011;6723;48.256;16.402;2022-07-15T15:31:53;4.33;;;2.43;;
13309;SDS011;6723;48.256;16.402;2022-07-15T15:34:19;2.60;;;2.30;;
13309;SDS011;6723;48.256;16.402;2022-07-15T15:36:45;3.07;;;2.53;;
13309;SDS011;6723;48.256;16.402;2022-07-15T15:39:12;8.60;;;3.30;;
13309;SDS011;6723;48.256;16.402;2022-07-15T15:41:39;5.17;;;3.47;;
13309;SDS011;6723;48.256;16.402;2022-07-15T15:44:04;9.00;;;3.57;;
13309;SDS011;6723;48.256;16.402;2022-07-15T15:46:31;4.80;;;3.67;;